Terminal Aerodrome Forecast
Issued by NWS North Platte, NE

Home | Current Version | Previous Version | Text Only | Print | Product List | Glossary Off
Versions: 1 2 3 4 5 6 7 8 9 10 11 12 13 14 15 16

000
FTUS43 KLBF 201100
TAFVTN
TAF
KVTN 201123Z 2012/2112 28004KT P6SM FEW080 SCT100
     FM201800 32018G24KT P6SM FEW100
     FM210000 35007KT P6SM SKC=

USA.gov is the U.S. government's official web portal to all federal, state and local government web resources and services.